sensor_id;sensor_type;location;lat;lon;timestamp;pressure;altitude;pressure_sealevel;temperature;humidity
64551;BME280;74341;44.510;-123.270;2023-12-28T00:01:42;100257.72;;;10.47;100.00
64551;BME280;74341;44.510;-123.270;2023-12-28T00:04:08;100261.66;;;10.44;100.00
64551;BME280;74341;44.510;-123.270;2023-12-28T00:06:35;100265.97;;;10.39;100.00
64551;BME280;74341;44.510;-123.270;2023-12-28T00:09:01;100258.03;;;10.29;100.00
64551;BME280;74341;44.510;-123.270;2023-12-28T00:11:28;100271.22;;;10.25;100.00
64551;BME280;74341;44.510;-123.270;2023-12-28T00:13:54;100265.75;;;10.25;100.00
64551;BME280;74341;44.510;-123.270;2023-12-28T00:16:20;100272.06;;;10.26;100.00
64551;BME280;74341;44.510;-123.270;2023-12-28T00:18:46;100278.28;;;10.20;100.00
64551;BME280;74341;44.510;-123.270;2023-12-28T00:21:13;100273.34;;;10.15;100.00
64551;BME280;74341;44.510;-123.270;2023-12-28T00:23:39;100280.03;;;10.13;100.00
64551;BME280;74341;44.510;-123.270;2023-12-28T00:26:06;100287.06;;;10.07;100.00
64551;BME280;74341;44.510;-123.270;2023-12-28T00:28:32;100279.78;;;9.99;100.00
64551;BME280;74341;44.510;-123.270;2023-12-28T00:30:58;100288.91;;;9.92;100.00
64551;BME280;74341;44.510;-123.270;2023-12-28T00:33:25;100294.25;;;9.85;100.00
64551;BME280;74341;44.510;-123.270;2023-12-28T00:35:51;100290.53;;;9.78;100.00
64551;BME280;74341;44.510;-123.270;2023-12-28T00:38:20;100311.22;;;9.72;100.00
64551;BME280;74341;44.510;-123.270;2023-12-28T00:40:46;100305.47;;;9.67;100.00
64551;BME280;74341;44.510;-123.270;2023-12-28T00:43:13;100298.53;;;9.56;100.00
64551;BME280;74341;44.510;-123.270;2023-12-28T00:45:39;100307.09;;;9.45;100.00
64551;BME280;74341;44.510;-123.270;2023-12-28T00:48:09;100320.47;;;9.31;100.00
64551;BME280;74341;44.510;-123.270;2023-12-28T00:50:35;100325.28;;;9.21;100.00
64551;BME280;74341;44.510;-123.270;2023-12-28T00:53:01;100324.47;;;9.12;100.00
64551;BME280;74341;44.510;-123.270;2023-12-28T00:55:28;100319.75;;;8.98;100.00
64551;BME280;74341;44.510;-123.270;2023-12-28T00:57:54;100324.38;;;8.89;100.00
64551;BME280;74341;44.510;-123.270;2023-12-28T01:00:20;100325.75;;;8.85;100.00
64551;BME280;74341;44.510;-123.270;2023-12-28T01:02:47;100337.00;;;8.74;100.00
64551;BME280;74341;44.510;-123.270;2023-12-28T01:05:16;100341.28;;;8.68;100.00
64551;BME280;74341;44.510;-123.270;2023-12-28T01:07:44;100337.03;;;8.57;100.00
64551;BME280;74341;44.510;-123.270;2023-12-28T01:10:10;100339.09;;;8.47;100.00
64551;BME280;74341;44.510;-123.270;2023-12-28T01:12:36;100349.81;;;8.41;100.00
64551;BME280;74341;44.510;-123.270;2023-12-28T01:15:04;100342.97;;;8.36;100.00
64551;BME280;74341;44.510;-123.270;2023-12-28T01:17:31;100338.06;;;8.32;100.00
64551;BME280;74341;44.510;-123.270;2023-12-28T01:19:57;100328.88;;;8.25;100.00
64551;BME280;74341;44.510;-123.270;2023-12-28T01:22:23;100348.25;;;8.22;100.00
64551;BME280;74341;44.510;-123.270;2023-12-28T01:24:50;100340.94;;;8.22;100.00
64551;BME280;74341;44.510;-123.270;2023-12-28T01:27:16;100348.25;;;8.22;100.00
64551;BME280;74341;44.510;-123.270;2023-12-28T01:29:43;100352.19;;;8.19;100.00
64551;BME280;74341;44.510;-123.270;2023-12-28T01:32:09;100352.69;;;8.14;100.00
64551;BME280;74341;44.510;-123.270;2023-12-28T01:34:40;100367.31;;;8.13;100.00
64551;BME280;74341;44.510;-123.270;2023-12-28T01:37:08;100372.41;;;8.08;100.00
64551;BME280;74341;44.510;-123.270;2023-12-28T01:39:34;100377.16;;;8.06;100.00
64551;BME280;74341;44.510;-123.270;2023-12-28T01:42:03;100374.81;;;8.03;100.00
64551;BME280;74341;44.510;-123.270;2023-12-28T01:44:30;100382.09;;;8.03;100.00
64551;BME280;74341;44.510;-123.270;2023-12-28T01:46:56;100378.88;;;7.99;100.00
64551;BME280;74341;44.510;-123.270;2023-12-28T01:49:23;100391.97;;;7.95;100.00
64551;BME280;74341;44.510;-123.270;2023-12-28T01:51:49;100383.63;;;7.89;100.00
64551;BME280;74341;44.510;-123.270;2023-12-28T01:54:19;100378.69;;;7.84;100.00
64551;BME280;74341;44.510;-123.270;2023-12-28T01:56:45;100374.06;;;7.76;100.00
64551;BME280;74341;44.510;-123.270;2023-12-28T01:59:12;100368.94;;;7.73;100.00
64551;BME280;74341;44.510;-123.270;2023-12-28T02:01:38;100373.34;;;7.66;100.00
64551;BME280;74341;44.510;-123.270;2023-12-28T02:04:06;100380.47;;;7.59;100.00
64551;BME280;74341;44.510;-123.270;2023-12-28T02:06:32;100374.00;;;7.52;100.00
64551;BME280;74341;44.510;-123.270;2023-12-28T02:08:59;100378.91;;;7.48;100.00
64551;BME280;74341;44.510;-123.270;2023-12-28T02:11:25;100382.28;;;7.42;100.00
64551;BME280;74341;44.510;-123.270;2023-12-28T02:13:52;100380.22;;;7.36;100.00
64551;BME280;74341;44.510;-123.270;2023-12-28T02:16:26;100371.19;;;7.35;100.00
64551;BME280;74341;44.510;-123.270;2023-12-28T02:19:00;100381.06;;;7.36;100.00
64551;BME280;74341;44.510;-123.270;2023-12-28T02:21:33;100380.22;;;7.36;100.00
64551;BME280;74341;44.510;-123.270;2023-12-28T02:24:00;100394.66;;;7.36;100.00
64551;BME280;74341;44.510;-123.270;2023-12-28T02:26:27;100399.94;;;7.38;100.00
64551;BME280;74341;44.510;-123.270;2023-12-28T02:28:55;100395.19;;;7.40;100.00
64551;BME280;74341;44.510;-123.270;2023-12-28T02:31:32;100403.34;;;7.40;100.00
64551;BME280;74341;44.510;-123.270;2023-12-28T02:34:09;100398.59;;;7.42;100.00
64551;BME280;74341;44.510;-123.270;2023-12-28T02:36:41;100411.38;;;7.50;100.00
64551;BME280;74341;44.510;-123.270;2023-12-28T02:39:11;100421.25;;;7.51;100.00
64551;BME280;74341;44.510;-123.270;2023-12-28T02:41:41;100425.69;;;7.52;100.00
64551;BME280;74341;44.510;-123.270;2023-12-28T02:44:09;100442.00;;;7.52;100.00
64551;BME280;74341;44.510;-123.270;2023-12-28T02:46:35;100445.88;;;7.49;100.00
64551;BME280;74341;44.510;-123.270;2023-12-28T02:49:01;100458.47;;;7.50;100.00
64551;BME280;74341;44.510;-123.270;2023-12-28T02:51:28;100458.78;;;7.47;100.00
64551;BME280;74341;44.510;-123.270;2023-12-28T02:53:57;100467.28;;;7.44;100.00
64551;BME280;74341;44.510;-123.270;2023-12-28T02:56:23;100471.19;;;7.41;100.00
64551;BME280;74341;44.510;-123.270;2023-12-28T02:58:50;100472.88;;;7.42;100.00
64551;BME280;74341;44.510;-123.270;2023-12-28T03:01:19;100482.69;;;7.35;100.00
64551;BME280;74341;44.510;-123.270;2023-12-28T03:03:45;100475.66;;;7.24;100.00
64551;BME280;74341;44.510;-123.270;2023-12-28T03:06:12;100474.75;;;7.16;100.00
64551;BME280;74341;44.510;-123.270;2023-12-28T03:08:38;100484.25;;;7.12;100.00
64551;BME280;74341;44.510;-123.270;2023-12-28T03:11:04;100498.16;;;7.09;100.00
64551;BME280;74341;44.510;-123.270;2023-12-28T03:13:31;100484.19;;;7.03;100.00
64551;BME280;74341;44.510;-123.270;2023-12-28T03:15:58;100485.50;;;6.99;100.00
64551;BME280;74341;44.510;-123.270;2023-12-28T03:18:25;100482.41;;;6.94;100.00
64551;BME280;74341;44.510;-123.270;2023-12-28T03:20:51;100483.91;;;6.89;100.00
64551;BME280;74341;44.510;-123.270;2023-12-28T03:23:20;100491.13;;;6.80;100.00
64551;BME280;74341;44.510;-123.270;2023-12-28T03:25:48;100488.03;;;6.75;100.00
64551;BME280;74341;44.510;-123.270;2023-12-28T03:28:14;100502.78;;;6.72;100.00
64551;BME280;74341;44.510;-123.270;2023-12-28T03:30:43;100498.69;;;6.68;100.00
64551;BME280;74341;44.510;-123.270;2023-12-28T03:33:10;100490.00;;;6.64;100.00
64551;BME280;74341;44.510;-123.270;2023-12-28T03:35:36;100486.41;;;6.64;100.00
64551;BME280;74341;44.510;-123.270;2023-12-28T03:38:02;100485.09;;;6.68;100.00
64551;BME280;74341;44.510;-123.270;2023-12-28T03:40:29;100482.19;;;6.70;100.00
64551;BME280;74341;44.510;-123.270;2023-12-28T03:42:58;100486.66;;;6.71;100.00
64551;BME280;74341;44.510;-123.270;2023-12-28T03:45:25;100486.66;;;6.71;100.00
64551;BME280;74341;44.510;-123.270;2023-12-28T03:47:51;100498.50;;;6.70;100.00
64551;BME280;74341;44.510;-123.270;2023-12-28T03:50:17;100496.81;;;6.69;100.00
64551;BME280;74341;44.510;-123.270;2023-12-28T03:52:47;100497.81;;;6.68;100.00
64551;BME280;74341;44.510;-123.270;2023-12-28T03:55:15;100496.13;;;6.66;100.00
64551;BME280;74341;44.510;-123.270;2023-12-28T03:57:42;100493.72;;;6.63;100.00
64551;BME280;74341;44.510;-123.270;2023-12-28T04:00:08;100497.41;;;6.62;100.00
64551;BME280;74341;44.510;-123.270;2023-12-28T04:02:35;100502.84;;;6.62;100.00
64551;BME280;74341;44.510;-123.270;2023-12-28T04:05:02;100508.69;;;6.68;100.00
64551;BME280;74341;44.510;-123.270;2023-12-28T04:07:30;100512.47;;;6.75;100.00
64551;BME280;74341;44.510;-123.270;2023-12-28T04:09:59;100527.63;;;6.77;100.00
64551;BME280;74341;44.510;-123.270;2023-12-28T04:12:28;100526.06;;;6.75;100.00
64551;BME280;74341;44.510;-123.270;2023-12-28T04:14:54;100534.22;;;6.75;100.00
64551;BME280;74341;44.510;-123.270;2023-12-28T04:17:21;100530.66;;;6.74;100.00
64551;BME280;74341;44.510;-123.270;2023-12-28T04:19:48;100539.66;;;6.75;100.00
64551;BME280;74341;44.510;-123.270;2023-12-28T04:22:15;100550.50;;;6.75;100.00
64551;BME280;74341;44.510;-123.270;2023-12-28T04:24:41;100564.66;;;6.78;100.00
64551;BME280;74341;44.510;-123.270;2023-12-28T04:27:08;100561.19;;;6.86;100.00
64551;BME280;74341;44.510;-123.270;2023-12-28T04:29:35;100566.66;;;6.94;100.00
64551;BME280;74341;44.510;-123.270;2023-12-28T04:32:01;100563.03;;;7.03;100.00
64551;BME280;74341;44.510;-123.270;2023-12-28T04:34:28;100572.25;;;7.11;100.00
64551;BME280;74341;44.510;-123.270;2023-12-28T04:36:54;100574.34;;;7.17;100.00
64551;BME280;74341;44.510;-123.270;2023-12-28T04:39:21;100582.72;;;7.23;100.00
64551;BME280;74341;44.510;-123.270;2023-12-28T04:41:47;100582.09;;;7.30;100.00
64551;BME280;74341;44.510;-123.270;2023-12-28T04:44:14;100573.31;;;7.36;100.00
64551;BME280;74341;44.510;-123.270;2023-12-28T04:46:40;100591.53;;;7.43;100.00
64551;BME280;74341;44.510;-123.270;2023-12-28T04:49:10;100590.94;;;7.50;100.00
64551;BME280;74341;44.510;-123.270;2023-12-28T04:51:43;100594.00;;;7.55;100.00
64551;BME280;74341;44.510;-123.270;2023-12-28T04:54:10;100599.66;;;7.61;100.00
64551;BME280;74341;44.510;-123.270;2023-12-28T04:56:36;100590.34;;;7.64;100.00
64551;BME280;74341;44.510;-123.270;2023-12-28T04:59:02;100600.03;;;7.67;100.00
64551;BME280;74341;44.510;-123.270;2023-12-28T05:01:29;100599.88;;;7.68;100.00
64551;BME280;74341;44.510;-123.270;2023-12-28T05:03:57;100622.34;;;7.70;100.00
64551;BME280;74341;44.510;-123.270;2023-12-28T05:06:23;100614.19;;;7.70;100.00
64551;BME280;74341;44.510;-123.270;2023-12-28T05:08:50;100603.44;;;7.69;100.00
64551;BME280;74341;44.510;-123.270;2023-12-28T05:11:16;100613.50;;;7.68;100.00
64551;BME280;74341;44.510;-123.270;2023-12-28T05:13:43;100610.06;;;7.66;100.00
64551;BME280;74341;44.510;-123.270;2023-12-28T05:16:09;100614.66;;;7.66;100.00
64551;BME280;74341;44.510;-123.270;2023-12-28T05:18:36;100609.19;;;7.66;100.00
64551;BME280;74341;44.510;-123.270;2023-12-28T05:21:03;100601.91;;;7.66;100.00
64551;BME280;74341;44.510;-123.270;2023-12-28T05:23:33;100600.72;;;7.69;100.00
64551;BME280;74341;44.510;-123.270;2023-12-28T05:25:59;100609.13;;;7.75;100.00
64551;BME280;74341;44.510;-123.270;2023-12-28T05:28:29;100620.06;;;7.84;100.00
64551;BME280;74341;44.510;-123.270;2023-12-28T05:30:55;100637.63;;;7.89;100.00
64551;BME280;74341;44.510;-123.270;2023-12-28T05:33:22;100662.50;;;7.94;100.00
64551;BME280;74341;44.510;-123.270;2023-12-28T05:35:48;100695.53;;;7.99;100.00
64551;BME280;74341;44.510;-123.270;2023-12-28T05:38:14;100686.34;;;8.00;100.00
64551;BME280;74341;44.510;-123.270;2023-12-28T05:40:41;100683.47;;;8.02;100.00
64551;BME280;74341;44.510;-123.270;2023-12-28T05:43:08;100680.41;;;8.05;100.00
64551;BME280;74341;44.510;-123.270;2023-12-28T05:45:35;100677.34;;;8.08;100.00
64551;BME280;74341;44.510;-123.270;2023-12-28T05:48:01;100683.38;;;8.12;100.00
64551;BME280;74341;44.510;-123.270;2023-12-28T05:50:27;100676.72;;;8.14;100.00
64551;BME280;74341;44.510;-123.270;2023-12-28T05:52:54;100667.56;;;8.15;100.00
64551;BME280;74341;44.510;-123.270;2023-12-28T05:55:21;100675.22;;;8.20;100.00
64551;BME280;74341;44.510;-123.270;2023-12-28T05:57:47;100677.84;;;8.30;100.00
64551;BME280;74341;44.510;-123.270;2023-12-28T06:00:14;100675.66;;;8.42;100.00
64551;BME280;74341;44.510;-123.270;2023-12-28T06:02:41;100688.34;;;8.51;100.00
64551;BME280;74341;44.510;-123.270;2023-12-28T06:05:07;100701.16;;;8.59;100.00
64551;BME280;74341;44.510;-123.270;2023-12-28T06:07:34;100693.34;;;8.64;100.00
64551;BME280;74341;44.510;-123.270;2023-12-28T06:10:00;100706.63;;;8.67;100.00
64551;BME280;74341;44.510;-123.270;2023-12-28T06:12:29;100715.00;;;8.65;100.00
64551;BME280;74341;44.510;-123.270;2023-12-28T06:14:56;100720.25;;;8.67;100.00
64551;BME280;74341;44.510;-123.270;2023-12-28T06:17:22;100731.16;;;8.67;100.00
64551;BME280;74341;44.510;-123.270;2023-12-28T06:19:49;100730.47;;;8.65;100.00
64551;BME280;74341;44.510;-123.270;2023-12-28T06:22:15;100735.25;;;8.63;100.00
64551;BME280;74341;44.510;-123.270;2023-12-28T06:24:42;100729.78;;;8.63;100.00
64551;BME280;74341;44.510;-123.270;2023-12-28T06:27:08;100737.66;;;8.66;100.00
64551;BME280;74341;44.510;-123.270;2023-12-28T06:29:35;100733.72;;;8.68;100.00
64551;BME280;74341;44.510;-123.270;2023-12-28T06:32:01;100745.16;;;8.72;100.00
64551;BME280;74341;44.510;-123.270;2023-12-28T06:34:28;100752.00;;;8.76;100.00
64551;BME280;74341;44.510;-123.270;2023-12-28T06:36:54;100756.44;;;8.77;100.00
64551;BME280;74341;44.510;-123.270;2023-12-28T06:39:21;100748.09;;;8.79;100.00
64551;BME280;74341;44.510;-123.270;2023-12-28T06:41:48;100759.38;;;8.84;100.00
64551;BME280;74341;44.510;-123.270;2023-12-28T06:44:15;100760.75;;;8.88;100.00
64551;BME280;74341;44.510;-123.270;2023-12-28T06:46:41;100764.88;;;8.92;100.00
64551;BME280;74341;44.510;-123.270;2023-12-28T06:49:07;100765.56;;;8.94;100.00
64551;BME280;74341;44.510;-123.270;2023-12-28T06:51:34;100778.50;;;8.92;100.00
64551;BME280;74341;44.510;-123.270;2023-12-28T06:54:00;100771.16;;;8.92;100.00
64551;BME280;74341;44.510;-123.270;2023-12-28T06:56:26;100765.88;;;8.91;100.00
64551;BME280;74341;44.510;-123.270;2023-12-28T06:58:53;100776.56;;;8.84;100.00
64551;BME280;74341;44.510;-123.270;2023-12-28T07:01:22;100780.66;;;8.80;100.00
64551;BME280;74341;44.510;-123.270;2023-12-28T07:03:48;100778.75;;;8.72;100.00
64551;BME280;74341;44.510;-123.270;2023-12-28T07:06:15;100782.94;;;8.67;100.00
64551;BME280;74341;44.510;-123.270;2023-12-28T07:08:41;100775.44;;;8.61;100.00
64551;BME280;74341;44.510;-123.270;2023-12-28T07:11:10;100780.66;;;8.54;100.00
64551;BME280;74341;44.510;-123.270;2023-12-28T07:13:37;100790.50;;;8.47;100.00
64551;BME280;74341;44.510;-123.270;2023-12-28T07:16:04;100793.84;;;8.41;100.00
64551;BME280;74341;44.510;-123.270;2023-12-28T07:18:30;100789.91;;;8.35;100.00
64551;BME280;74341;44.510;-123.270;2023-12-28T07:20:56;100795.81;;;8.30;100.00
64551;BME280;74341;44.510;-123.270;2023-12-28T07:23:23;100803.59;;;8.25;100.00
64551;BME280;74341;44.510;-123.270;2023-12-28T07:25:49;100792.88;;;8.24;100.00
64551;BME280;74341;44.510;-123.270;2023-12-28T07:28:16;100807.81;;;8.19;100.00
64551;BME280;74341;44.510;-123.270;2023-12-28T07:30:42;100807.97;;;8.18;100.00
64551;BME280;74341;44.510;-123.270;2023-12-28T07:33:08;100810.00;;;8.16;100.00
64551;BME280;74341;44.510;-123.270;2023-12-28T07:35:35;100805.56;;;8.15;100.00
64551;BME280;74341;44.510;-123.270;2023-12-28T07:38:01;100800.47;;;8.12;100.00
64551;BME280;74341;44.510;-123.270;2023-12-28T07:40:28;100800.06;;;8.07;100.00
64551;BME280;74341;44.510;-123.270;2023-12-28T07:42:54;100806.28;;;7.99;100.00
64551;BME280;74341;44.510;-123.270;2023-12-28T07:45:20;100810.78;;;7.90;100.00
64551;BME280;74341;44.510;-123.270;2023-12-28T07:47:50;100816.88;;;7.84;100.00
64551;BME280;74341;44.510;-123.270;2023-12-28T07:50:17;100821.94;;;7.79;100.00
64551;BME280;74341;44.510;-123.270;2023-12-28T07:52:44;100821.69;;;7.72;100.00
64551;BME280;74341;44.510;-123.270;2023-12-28T07:55:11;100817.56;;;7.68;100.00
64551;BME280;74341;44.510;-123.270;2023-12-28T07:57:37;100813.47;;;7.64;100.00
64551;BME280;74341;44.510;-123.270;2023-12-28T08:00:05;100816.47;;;7.61;100.00
64551;BME280;74341;44.510;-123.270;2023-12-28T08:02:31;100818.13;;;7.54;100.00
64551;BME280;74341;44.510;-123.270;2023-12-28T08:04:57;100816.53;;;7.51;100.00
64551;BME280;74341;44.510;-123.270;2023-12-28T08:07:24;100829.59;;;7.48;100.00
64551;BME280;74341;44.510;-123.270;2023-12-28T08:09:50;100830.75;;;7.45;100.00
64551;BME280;74341;44.510;-123.270;2023-12-28T08:12:16;100842.78;;;7.42;100.00
64551;BME280;74341;44.510;-123.270;2023-12-28T08:14:43;100840.06;;;7.42;100.00
64551;BME280;74341;44.510;-123.270;2023-12-28T08:17:10;100834.63;;;7.42;100.00
64551;BME280;74341;44.510;-123.270;2023-12-28T08:19:36;100841.25;;;7.40;100.00
64551;BME280;74341;44.510;-123.270;2023-12-28T08:22:03;100842.56;;;7.36;100.00
64551;BME280;74341;44.510;-123.270;2023-12-28T08:24:29;100844.72;;;7.32;100.00
64551;BME280;74341;44.510;-123.270;2023-12-28T08:26:55;100853.63;;;7.24;100.00
64551;BME280;74341;44.510;-123.270;2023-12-28T08:29:26;100847.78;;;7.19;100.00
64551;BME280;74341;44.510;-123.270;2023-12-28T08:31:52;100850.28;;;7.13;100.00
64551;BME280;74341;44.510;-123.270;2023-12-28T08:34:18;100856.16;;;7.08;100.00
64551;BME280;74341;44.510;-123.270;2023-12-28T08:36:45;100854.75;;;7.04;100.00
64551;BME280;74341;44.510;-123.270;2023-12-28T08:39:11;100846.47;;;6.96;100.00
64551;BME280;74341;44.510;-123.270;2023-12-28T08:41:37;100849.94;;;6.88;100.00
64551;BME280;74341;44.510;-123.270;2023-12-28T08:44:04;100853.41;;;6.80;100.00
64551;BME280;74341;44.510;-123.270;2023-12-28T08:46:30;100859.41;;;6.74;100.00
64551;BME280;74341;44.510;-123.270;2023-12-28T08:48:56;100875.31;;;6.69;100.00
64551;BME280;74341;44.510;-123.270;2023-12-28T08:51:23;100869.44;;;6.64;100.00
64551;BME280;74341;44.510;-123.270;2023-12-28T08:53:49;100882.31;;;6.62;100.00
64551;BME280;74341;44.510;-123.270;2023-12-28T08:56:22;100880.63;;;6.61;100.00
64551;BME280;74341;44.510;-123.270;2023-12-28T08:58:49;100878.75;;;6.61;100.00
64551;BME280;74341;44.510;-123.270;2023-12-28T09:01:24;100876.91;;;6.62;100.00
64551;BME280;74341;44.510;-123.270;2023-12-28T09:03:55;100884.19;;;6.61;100.00
64551;BME280;74341;44.510;-123.270;2023-12-28T09:06:22;100883.34;;;6.61;100.00
64551;BME280;74341;44.510;-123.270;2023-12-28T09:08:50;100884.06;;;6.63;100.00
64551;BME280;74341;44.510;-123.270;2023-12-28T09:11:18;100869.59;;;6.62;100.00
64551;BME280;74341;44.510;-123.270;2023-12-28T09:13:44;100885.31;;;6.59;100.00
64551;BME280;74341;44.510;-123.270;2023-12-28T09:16:12;100886.22;;;6.59;100.00
64551;BME280;74341;44.510;-123.270;2023-12-28T09:18:39;100874.31;;;6.60;100.00
64551;BME280;74341;44.510;-123.270;2023-12-28T09:21:06;100892.06;;;6.55;100.00
64551;BME280;74341;44.510;-123.270;2023-12-28T09:23:32;100878.91;;;6.50;100.00
64551;BME280;74341;44.510;-123.270;2023-12-28T09:26:03;100891.06;;;6.46;100.00
64551;BME280;74341;44.510;-123.270;2023-12-28T09:28:30;100889.94;;;6.39;100.00
64551;BME280;74341;44.510;-123.270;2023-12-28T09:30:56;100893.25;;;6.33;100.00
64551;BME280;74341;44.510;-123.270;2023-12-28T09:33:23;100892.69;;;6.29;100.00
64551;BME280;74341;44.510;-123.270;2023-12-28T09:35:50;100892.97;;;6.26;100.00
64551;BME280;74341;44.510;-123.270;2023-12-28T09:38:16;100897.53;;;6.25;100.00
64551;BME280;74341;44.510;-123.270;2023-12-28T09:40:43;100897.81;;;6.22;100.00
64551;BME280;74341;44.510;-123.270;2023-12-28T09:43:19;100891.81;;;6.19;100.00
64551;BME280;74341;44.510;-123.270;2023-12-28T09:45:48;100900.94;;;6.18;100.00
64551;BME280;74341;44.510;-123.270;2023-12-28T09:48:18;100903.09;;;6.14;100.00
64551;BME280;74341;44.510;-123.270;2023-12-28T09:50:48;100916.09;;;6.11;100.00
64551;BME280;74341;44.510;-123.270;2023-12-28T09:53:15;100901.97;;;6.07;100.00
64551;BME280;74341;44.510;-123.270;2023-12-28T09:55:42;100910.22;;;6.05;100.00
64551;BME280;74341;44.510;-123.270;2023-12-28T09:58:10;100913.97;;;6.04;100.00
64551;BME280;74341;44.510;-123.270;2023-12-28T10:00:39;100916.69;;;6.04;100.00
64551;BME280;74341;44.510;-123.270;2023-12-28T10:03:06;100915.81;;;6.04;100.00
64551;BME280;74341;44.510;-123.270;2023-12-28T10:05:32;100904.81;;;6.05;100.00
64551;BME280;74341;44.510;-123.270;2023-12-28T10:07:59;100909.97;;;6.08;100.00
64551;BME280;74341;44.510;-123.270;2023-12-28T10:10:25;100912.41;;;6.12;100.00
64551;BME280;74341;44.510;-123.270;2023-12-28T10:12:52;100918.53;;;6.14;100.00
64551;BME280;74341;44.510;-123.270;2023-12-28T10:15:18;100931.13;;;6.15;100.00
64551;BME280;74341;44.510;-123.270;2023-12-28T10:17:45;100941.09;;;6.14;100.00
64551;BME280;74341;44.510;-123.270;2023-12-28T10:20:13;100928.53;;;6.13;100.00
64551;BME280;74341;44.510;-123.270;2023-12-28T10:22:40;100935.53;;;6.16;100.00
64551;BME280;74341;44.510;-123.270;2023-12-28T10:25:07;100932.81;;;6.16;100.00
64551;BME280;74341;44.510;-123.270;2023-12-28T10:27:41;100931.25;;;6.13;100.00
64551;BME280;74341;44.510;-123.270;2023-12-28T10:30:08;100941.38;;;6.11;100.00
64551;BME280;74341;44.510;-123.270;2023-12-28T10:32:41;100939.69;;;6.10;100.00
64551;BME280;74341;44.510;-123.270;2023-12-28T10:35:08;100945.25;;;6.08;100.00
64551;BME280;74341;44.510;-123.270;2023-12-28T10:37:35;100947.97;;;6.08;100.00
64551;BME280;74341;44.510;-123.270;2023-12-28T10:40:06;100949.25;;;6.04;100.00
64551;BME280;74341;44.510;-123.270;2023-12-28T10:42:37;100946.81;;;6.01;100.00
64551;BME280;74341;44.510;-123.270;2023-12-28T10:45:11;100952.50;;;5.98;100.00
64551;BME280;74341;44.510;-123.270;2023-12-28T10:47:45;100946.59;;;5.93;100.00
64551;BME280;74341;44.510;-123.270;2023-12-28T10:50:13;100949.75;;;5.88;100.00
64551;BME280;74341;44.510;-123.270;2023-12-28T10:52:44;100949.44;;;5.82;100.00
64551;BME280;74341;44.510;-123.270;2023-12-28T10:58:10;100951.72;;;5.67;100.00
64551;BME280;74341;44.510;-123.270;2023-12-28T11:00:45;100955.97;;;5.60;100.00
64551;BME280;74341;44.510;-123.270;2023-12-28T11:03:31;100955.53;;;5.55;100.00
64551;BME280;74341;44.510;-123.270;2023-12-28T11:06:03;100960.06;;;5.44;100.00
64551;BME280;74341;44.510;-123.270;2023-12-28T11:08:32;100960.00;;;5.34;100.00
64551;BME280;74341;44.510;-123.270;2023-12-28T11:11:02;100968.09;;;5.25;100.00
64551;BME280;74341;44.510;-123.270;2023-12-28T11:13:32;100966.66;;;5.21;100.00
64551;BME280;74341;44.510;-123.270;2023-12-28T11:15:59;100968.50;;;5.20;100.00
64551;BME280;74341;44.510;-123.270;2023-12-28T11:18:26;100961.63;;;5.16;100.00
64551;BME280;74341;44.510;-123.270;2023-12-28T11:20:54;100973.31;;;5.17;100.00
64551;BME280;74341;44.510;-123.270;2023-12-28T11:23:21;100975.56;;;5.11;100.00
64551;BME280;74341;44.510;-123.270;2023-12-28T11:25:48;100973.16;;;5.08;100.00
64551;BME280;74341;44.510;-123.270;2023-12-28T11:28:14;100966.25;;;5.04;100.00
64551;BME280;74341;44.510;-123.270;2023-12-28T11:30:44;100968.38;;;5.01;100.00
64551;BME280;74341;44.510;-123.270;2023-12-28T11:33:13;100970.78;;;4.94;100.00
64551;BME280;74341;44.510;-123.270;2023-12-28T11:35:39;100974.88;;;4.88;100.00
64551;BME280;74341;44.510;-123.270;2023-12-28T11:38:08;100976.84;;;4.86;100.00
64551;BME280;74341;44.510;-123.270;2023-12-28T11:40:44;100974.16;;;4.86;100.00
64551;BME280;74341;44.510;-123.270;2023-12-28T11:43:20;100982.28;;;4.86;100.00
64551;BME280;74341;44.510;-123.270;2023-12-28T11:45:56;100976.13;;;4.84;100.00
64551;BME280;74341;44.510;-123.270;2023-12-28T11:48:26;100966.91;;;4.87;100.00
64551;BME280;74341;44.510;-123.270;2023-12-28T11:51:00;100960.59;;;4.86;100.00
64551;BME280;74341;44.510;-123.270;2023-12-28T11:53:27;100955.47;;;4.83;100.00
64551;BME280;74341;44.510;-123.270;2023-12-28T11:56:00;100953.63;;;4.84;100.00
64551;BME280;74341;44.510;-123.270;2023-12-28T11:58:27;100958.19;;;4.83;100.00
64551;BME280;74341;44.510;-123.270;2023-12-28T12:00:54;100947.19;;;4.85;100.00
64551;BME280;74341;44.510;-123.270;2023-12-28T12:03:20;100952.47;;;4.86;100.00
64551;BME280;74341;44.510;-123.270;2023-12-28T12:05:46;100952.59;;;4.85;100.00
64551;BME280;74341;44.510;-123.270;2023-12-28T12:08:13;100958.91;;;4.85;100.00
64551;BME280;74341;44.510;-123.270;2023-12-28T12:10:40;100958.03;;;4.85;100.00
64551;BME280;74341;44.510;-123.270;2023-12-28T12:13:07;100956.31;;;4.84;100.00
64551;BME280;74341;44.510;-123.270;2023-12-28T12:15:34;100965.56;;;4.81;100.00
64551;BME280;74341;44.510;-123.270;2023-12-28T12:18:01;100961.16;;;4.80;100.00
64551;BME280;74341;44.510;-123.270;2023-12-28T12:20:29;100965.69;;;4.80;100.00
64551;BME280;74341;44.510;-123.270;2023-12-28T12:22:59;100972.84;;;4.81;100.00
64551;BME280;74341;44.510;-123.270;2023-12-28T12:25:26;100980.09;;;4.80;100.00